sensor_id;sensor_type;location;lat;lon;timestamp;P1;durP1;ratioP1;P2;durP2;ratioP2
74059;SDS011;62414;53.436;8.828;2023-07-13T00:01:03;10.25;;;6.05;;
74059;SDS011;62414;53.436;8.828;2023-07-13T00:03:29;9.30;;;5.70;;
74059;SDS011;62414;53.436;8.828;2023-07-13T00:05:57;12.20;;;6.43;;
74059;SDS011;62414;53.436;8.828;2023-07-13T00:08:23;10.13;;;6.03;;
74059;SDS011;62414;53.436;8.828;2023-07-13T00:10:48;11.13;;;6.00;;
74059;SDS011;62414;53.436;8.828;2023-07-13T00:13:16;12.53;;;5.40;;
74059;SDS011;62414;53.436;8.828;2023-07-13T00:15:43;11.00;;;5.90;;
74059;SDS011;62414;53.436;8.828;2023-07-13T00:18:09;10.27;;;5.93;;
74059;SDS011;62414;53.436;8.828;2023-07-13T00:20:34;10.73;;;5.80;;
74059;SDS011;62414;53.436;8.828;2023-07-13T00:22:59;11.17;;;6.43;;
74059;SDS011;62414;53.436;8.828;2023-07-13T00:25:25;10.83;;;6.23;;
74059;SDS011;62414;53.436;8.828;2023-07-13T00:27:50;11.63;;;6.00;;
74059;SDS011;62414;53.436;8.828;2023-07-13T00:30:16;12.20;;;6.33;;
74059;SDS011;62414;53.436;8.828;2023-07-13T00:32:43;11.40;;;6.82;;
74059;SDS011;62414;53.436;8.828;2023-07-13T00:35:09;15.97;;;6.70;;
74059;SDS011;62414;53.436;8.828;2023-07-13T00:37:34;13.13;;;6.47;;
74059;SDS011;62414;53.436;8.828;2023-07-13T00:40:00;11.77;;;7.03;;
74059;SDS011;62414;53.436;8.828;2023-07-13T00:42:25;12.88;;;6.97;;
74059;SDS011;62414;53.436;8.828;2023-07-13T00:45:04;13.80;;;7.27;;
74059;SDS011;62414;53.436;8.828;2023-07-13T00:47:31;13.43;;;6.90;;
74059;SDS011;62414;53.436;8.828;2023-07-13T00:49:57;15.53;;;6.97;;
74059;SDS011;62414;53.436;8.828;2023-07-13T00:52:25;11.23;;;6.88;;
74059;SDS011;62414;53.436;8.828;2023-07-13T00:54:51;12.85;;;6.90;;
74059;SDS011;62414;53.436;8.828;2023-07-13T00:57:19;13.55;;;7.10;;
74059;SDS011;62414;53.436;8.828;2023-07-13T00:59:46;12.47;;;6.50;;
74059;SDS011;62414;53.436;8.828;2023-07-13T01:02:14;12.07;;;6.97;;
74059;SDS011;62414;53.436;8.828;2023-07-13T01:04:40;12.77;;;6.85;;
74059;SDS011;62414;53.436;8.828;2023-07-13T01:07:07;14.27;;;7.00;;
74059;SDS011;62414;53.436;8.828;2023-07-13T01:09:32;12.73;;;7.03;;
74059;SDS011;62414;53.436;8.828;2023-07-13T01:11:58;16.07;;;7.20;;
74059;SDS011;62414;53.436;8.828;2023-07-13T01:14:23;12.63;;;6.90;;
74059;SDS011;62414;53.436;8.828;2023-07-13T01:16:49;15.03;;;7.77;;
74059;SDS011;62414;53.436;8.828;2023-07-13T01:19:18;11.63;;;7.28;;
74059;SDS011;62414;53.436;8.828;2023-07-13T01:21:51;11.07;;;7.00;;
74059;SDS011;62414;53.436;8.828;2023-07-13T01:24:17;14.02;;;7.68;;
74059;SDS011;62414;53.436;8.828;2023-07-13T01:26:42;13.30;;;7.40;;
74059;SDS011;62414;53.436;8.828;2023-07-13T01:29:08;10.97;;;6.73;;
74059;SDS011;62414;53.436;8.828;2023-07-13T01:31:33;12.03;;;6.97;;
74059;SDS011;62414;53.436;8.828;2023-07-13T01:33:59;11.65;;;7.40;;
74059;SDS011;62414;53.436;8.828;2023-07-13T01:36:24;14.60;;;7.07;;
74059;SDS011;62414;53.436;8.828;2023-07-13T01:38:51;14.05;;;7.28;;
74059;SDS011;62414;53.436;8.828;2023-07-13T01:41:17;13.73;;;7.40;;
74059;SDS011;62414;53.436;8.828;2023-07-13T01:43:42;12.43;;;7.10;;
74059;SDS011;62414;53.436;8.828;2023-07-13T01:46:08;13.53;;;7.23;;
74059;SDS011;62414;53.436;8.828;2023-07-13T01:48:33;13.70;;;7.20;;
74059;SDS011;62414;53.436;8.828;2023-07-13T01:50:59;11.23;;;6.82;;
74059;SDS011;62414;53.436;8.828;2023-07-13T01:53:25;15.33;;;7.30;;
74059;SDS011;62414;53.436;8.828;2023-07-13T01:55:51;13.35;;;7.20;;
74059;SDS011;62414;53.436;8.828;2023-07-13T01:58:17;14.30;;;6.77;;
74059;SDS011;62414;53.436;8.828;2023-07-13T02:00:43;14.82;;;7.30;;
74059;SDS011;62414;53.436;8.828;2023-07-13T02:03:08;14.20;;;7.55;;
74059;SDS011;62414;53.436;8.828;2023-07-13T02:05:34;14.67;;;7.17;;
74059;SDS011;62414;53.436;8.828;2023-07-13T02:08:00;14.38;;;6.97;;
74059;SDS011;62414;53.436;8.828;2023-07-13T02:10:25;14.00;;;7.30;;
74059;SDS011;62414;53.436;8.828;2023-07-13T02:12:52;12.60;;;6.80;;
74059;SDS011;62414;53.436;8.828;2023-07-13T02:15:18;13.35;;;7.00;;
74059;SDS011;62414;53.436;8.828;2023-07-13T02:17:43;16.23;;;6.87;;
74059;SDS011;62414;53.436;8.828;2023-07-13T02:20:09;16.23;;;7.10;;
74059;SDS011;62414;53.436;8.828;2023-07-13T02:22:35;12.85;;;6.75;;
74059;SDS011;62414;53.436;8.828;2023-07-13T02:25:00;11.87;;;6.53;;
74059;SDS011;62414;53.436;8.828;2023-07-13T02:27:26;13.40;;;6.60;;
74059;SDS011;62414;53.436;8.828;2023-07-13T02:29:53;12.18;;;5.72;;
74059;SDS011;62414;53.436;8.828;2023-07-13T02:32:20;9.93;;;5.35;;
74059;SDS011;62414;53.436;8.828;2023-07-13T02:34:45;13.27;;;5.77;;
74059;SDS011;62414;53.436;8.828;2023-07-13T02:37:11;15.70;;;5.37;;
74059;SDS011;62414;53.436;8.828;2023-07-13T02:39:36;11.60;;;5.70;;
74059;SDS011;62414;53.436;8.828;2023-07-13T02:42:02;12.27;;;5.63;;
74059;SDS011;62414;53.436;8.828;2023-07-13T02:44:28;10.30;;;5.88;;
74059;SDS011;62414;53.436;8.828;2023-07-13T02:46:56;12.63;;;5.97;;
74059;SDS011;62414;53.436;8.828;2023-07-13T02:49:21;11.63;;;5.80;;
74059;SDS011;62414;53.436;8.828;2023-07-13T02:51:47;11.43;;;5.70;;
74059;SDS011;62414;53.436;8.828;2023-07-13T02:54:13;11.68;;;5.93;;
74059;SDS011;62414;53.436;8.828;2023-07-13T02:56:38;13.00;;;6.00;;
74059;SDS011;62414;53.436;8.828;2023-07-13T02:59:04;15.40;;;6.18;;
74059;SDS011;62414;53.436;8.828;2023-07-13T03:01:30;15.85;;;5.93;;
74059;SDS011;62414;53.436;8.828;2023-07-13T03:03:57;13.07;;;5.67;;
74059;SDS011;62414;53.436;8.828;2023-07-13T03:06:23;15.20;;;5.97;;
74059;SDS011;62414;53.436;8.828;2023-07-13T03:08:52;15.23;;;5.50;;
74059;SDS011;62414;53.436;8.828;2023-07-13T03:11:18;14.85;;;5.68;;
74059;SDS011;62414;53.436;8.828;2023-07-13T03:13:48;14.77;;;5.32;;
74059;SDS011;62414;53.436;8.828;2023-07-13T03:16:14;14.33;;;5.83;;
74059;SDS011;62414;53.436;8.828;2023-07-13T03:18:42;12.65;;;5.60;;
74059;SDS011;62414;53.436;8.828;2023-07-13T03:21:11;12.82;;;6.00;;
74059;SDS011;62414;53.436;8.828;2023-07-13T03:23:38;19.15;;;5.85;;
74059;SDS011;62414;53.436;8.828;2023-07-13T03:26:04;15.87;;;5.57;;
74059;SDS011;62414;53.436;8.828;2023-07-13T03:28:31;11.10;;;5.70;;
74059;SDS011;62414;53.436;8.828;2023-07-13T03:31:01;12.93;;;5.53;;
74059;SDS011;62414;53.436;8.828;2023-07-13T03:33:29;12.60;;;5.78;;
74059;SDS011;62414;53.436;8.828;2023-07-13T03:35:55;12.63;;;5.63;;
74059;SDS011;62414;53.436;8.828;2023-07-13T03:38:22;11.73;;;5.15;;
74059;SDS011;62414;53.436;8.828;2023-07-13T03:40:48;12.30;;;5.67;;
74059;SDS011;62414;53.436;8.828;2023-07-13T03:43:13;13.43;;;5.30;;
74059;SDS011;62414;53.436;8.828;2023-07-13T03:45:39;12.07;;;5.70;;
74059;SDS011;62414;53.436;8.828;2023-07-13T03:48:05;12.40;;;5.30;;
74059;SDS011;62414;53.436;8.828;2023-07-13T03:50:31;14.43;;;6.03;;
74059;SDS011;62414;53.436;8.828;2023-07-13T03:52:56;14.97;;;5.73;;
74059;SDS011;62414;53.436;8.828;2023-07-13T03:55:23;14.77;;;5.60;;
74059;SDS011;62414;53.436;8.828;2023-07-13T03:57:52;15.10;;;5.68;;
74059;SDS011;62414;53.436;8.828;2023-07-13T04:00:20;11.65;;;5.40;;
74059;SDS011;62414;53.436;8.828;2023-07-13T04:02:45;13.90;;;5.22;;
74059;SDS011;62414;53.436;8.828;2023-07-13T04:05:11;13.87;;;5.13;;
74059;SDS011;62414;53.436;8.828;2023-07-13T04:07:36;13.37;;;5.67;;
74059;SDS011;62414;53.436;8.828;2023-07-13T04:10:02;12.67;;;5.37;;
74059;SDS011;62414;53.436;8.828;2023-07-13T04:12:31;14.13;;;5.53;;
74059;SDS011;62414;53.436;8.828;2023-07-13T04:14:56;13.00;;;5.45;;
74059;SDS011;62414;53.436;8.828;2023-07-13T04:17:22;17.67;;;5.70;;
74059;SDS011;62414;53.436;8.828;2023-07-13T04:19:47;16.45;;;5.40;;
74059;SDS011;62414;53.436;8.828;2023-07-13T04:22:12;12.47;;;5.70;;
74059;SDS011;62414;53.436;8.828;2023-07-13T04:24:38;16.00;;;5.90;;
74059;SDS011;62414;53.436;8.828;2023-07-13T04:27:04;16.03;;;5.80;;
74059;SDS011;62414;53.436;8.828;2023-07-13T04:29:31;13.07;;;5.00;;
74059;SDS011;62414;53.436;8.828;2023-07-13T04:31:56;13.30;;;5.50;;
74059;SDS011;62414;53.436;8.828;2023-07-13T04:34:22;13.67;;;5.33;;
74059;SDS011;62414;53.436;8.828;2023-07-13T04:36:47;14.48;;;5.63;;
74059;SDS011;62414;53.436;8.828;2023-07-13T04:39:12;16.30;;;5.57;;
74059;SDS011;62414;53.436;8.828;2023-07-13T04:41:38;20.17;;;5.63;;
74059;SDS011;62414;53.436;8.828;2023-07-13T04:44:03;11.90;;;5.15;;
74059;SDS011;62414;53.436;8.828;2023-07-13T04:46:30;16.57;;;5.20;;
74059;SDS011;62414;53.436;8.828;2023-07-13T04:48:56;14.95;;;4.97;;
74059;SDS011;62414;53.436;8.828;2023-07-13T04:51:21;11.63;;;4.93;;
74059;SDS011;62414;53.436;8.828;2023-07-13T04:53:46;15.47;;;5.03;;
74059;SDS011;62414;53.436;8.828;2023-07-13T04:56:12;14.63;;;5.20;;
74059;SDS011;62414;53.436;8.828;2023-07-13T04:58:37;11.27;;;4.88;;
74059;SDS011;62414;53.436;8.828;2023-07-13T05:01:04;16.27;;;4.60;;
74059;SDS011;62414;53.436;8.828;2023-07-13T05:03:31;14.23;;;4.90;;
74059;SDS011;62414;53.436;8.828;2023-07-13T05:05:58;14.93;;;5.13;;
74059;SDS011;62414;53.436;8.828;2023-07-13T05:08:24;11.77;;;4.53;;
74059;SDS011;62414;53.436;8.828;2023-07-13T05:10:50;14.60;;;5.00;;
74059;SDS011;62414;53.436;8.828;2023-07-13T05:13:15;12.10;;;4.63;;
74059;SDS011;62414;53.436;8.828;2023-07-13T05:15:41;16.00;;;4.60;;
74059;SDS011;62414;53.436;8.828;2023-07-13T05:18:06;13.93;;;4.40;;
74059;SDS011;62414;53.436;8.828;2023-07-13T05:20:33;15.00;;;4.17;;
74059;SDS011;62414;53.436;8.828;2023-07-13T05:22:58;13.50;;;4.70;;
74059;SDS011;62414;53.436;8.828;2023-07-13T05:25:24;13.27;;;4.23;;
74059;SDS011;62414;53.436;8.828;2023-07-13T05:27:49;14.57;;;4.17;;
74059;SDS011;62414;53.436;8.828;2023-07-13T05:30:14;16.08;;;4.15;;
74059;SDS011;62414;53.436;8.828;2023-07-13T05:32:40;11.40;;;3.97;;
74059;SDS011;62414;53.436;8.828;2023-07-13T05:35:06;14.48;;;4.18;;
74059;SDS011;62414;53.436;8.828;2023-07-13T05:37:33;12.10;;;4.03;;
74059;SDS011;62414;53.436;8.828;2023-07-13T05:39:59;16.75;;;4.25;;
74059;SDS011;62414;53.436;8.828;2023-07-13T05:42:24;13.80;;;3.90;;
74059;SDS011;62414;53.436;8.828;2023-07-13T05:44:50;11.17;;;3.60;;
74059;SDS011;62414;53.436;8.828;2023-07-13T05:47:15;15.13;;;4.30;;
74059;SDS011;62414;53.436;8.828;2023-07-13T05:49:41;13.13;;;3.90;;
74059;SDS011;62414;53.436;8.828;2023-07-13T05:52:06;11.10;;;4.20;;
74059;SDS011;62414;53.436;8.828;2023-07-13T05:54:33;12.70;;;3.77;;
74059;SDS011;62414;53.436;8.828;2023-07-13T05:56:59;11.77;;;3.78;;
74059;SDS011;62414;53.436;8.828;2023-07-13T05:59:24;13.87;;;4.63;;
74059;SDS011;62414;53.436;8.828;2023-07-13T06:01:50;13.40;;;3.83;;
74059;SDS011;62414;53.436;8.828;2023-07-13T06:04:15;13.70;;;3.60;;
74059;SDS011;62414;53.436;8.828;2023-07-13T06:06:40;11.50;;;3.87;;
74059;SDS011;62414;53.436;8.828;2023-07-13T06:09:06;15.93;;;4.10;;
74059;SDS011;62414;53.436;8.828;2023-07-13T06:11:33;11.37;;;3.60;;
74059;SDS011;62414;53.436;8.828;2023-07-13T06:13:58;14.20;;;4.25;;
74059;SDS011;62414;53.436;8.828;2023-07-13T06:16:23;13.10;;;4.17;;
74059;SDS011;62414;53.436;8.828;2023-07-13T06:18:49;10.77;;;4.00;;
74059;SDS011;62414;53.436;8.828;2023-07-13T06:21:15;12.13;;;3.83;;
74059;SDS011;62414;53.436;8.828;2023-07-13T06:23:41;12.20;;;4.10;;
74059;SDS011;62414;53.436;8.828;2023-07-13T06:26:07;19.95;;;3.95;;
74059;SDS011;62414;53.436;8.828;2023-07-13T06:28:34;15.30;;;4.22;;
74059;SDS011;62414;53.436;8.828;2023-07-13T06:31:01;13.80;;;3.60;;
74059;SDS011;62414;53.436;8.828;2023-07-13T06:33:27;14.98;;;4.13;;
74059;SDS011;62414;53.436;8.828;2023-07-13T06:35:52;13.27;;;3.67;;
74059;SDS011;62414;53.436;8.828;2023-07-13T06:38:18;12.43;;;3.70;;
74059;SDS011;62414;53.436;8.828;2023-07-13T06:40:43;18.63;;;3.90;;
74059;SDS011;62414;53.436;8.828;2023-07-13T06:43:09;11.07;;;3.58;;
74059;SDS011;62414;53.436;8.828;2023-07-13T06:45:40;12.97;;;3.93;;
74059;SDS011;62414;53.436;8.828;2023-07-13T06:48:06;14.77;;;4.07;;
74059;SDS011;62414;53.436;8.828;2023-07-13T06:50:31;13.20;;;3.47;;
74059;SDS011;62414;53.436;8.828;2023-07-13T06:52:58;14.32;;;3.47;;
74059;SDS011;62414;53.436;8.828;2023-07-13T06:55:23;12.97;;;3.73;;
74059;SDS011;62414;53.436;8.828;2023-07-13T06:57:49;15.15;;;4.07;;
74059;SDS011;62414;53.436;8.828;2023-07-13T07:00:14;12.27;;;3.73;;
74059;SDS011;62414;53.436;8.828;2023-07-13T07:02:41;17.77;;;3.90;;
74059;SDS011;62414;53.436;8.828;2023-07-13T07:05:07;17.07;;;4.10;;
74059;SDS011;62414;53.436;8.828;2023-07-13T07:07:32;15.73;;;4.03;;
74059;SDS011;62414;53.436;8.828;2023-07-13T07:09:58;16.73;;;4.10;;
74059;SDS011;62414;53.436;8.828;2023-07-13T07:12:23;11.67;;;3.97;;
74059;SDS011;62414;53.436;8.828;2023-07-13T07:14:48;10.57;;;3.47;;
74059;SDS011;62414;53.436;8.828;2023-07-13T07:17:14;17.10;;;3.80;;
74059;SDS011;62414;53.436;8.828;2023-07-13T07:19:41;16.43;;;3.90;;
74059;SDS011;62414;53.436;8.828;2023-07-13T07:22:06;12.75;;;3.90;;
74059;SDS011;62414;53.436;8.828;2023-07-13T07:24:32;13.70;;;4.63;;
74059;SDS011;62414;53.436;8.828;2023-07-13T07:26:57;14.07;;;4.10;;
74059;SDS011;62414;53.436;8.828;2023-07-13T07:29:22;13.57;;;4.10;;
74059;SDS011;62414;53.436;8.828;2023-07-13T07:31:48;13.33;;;3.97;;
74059;SDS011;62414;53.436;8.828;2023-07-13T07:34:13;13.20;;;4.67;;
74059;SDS011;62414;53.436;8.828;2023-07-13T07:36:40;15.17;;;4.37;;
74059;SDS011;62414;53.436;8.828;2023-07-13T07:39:05;16.67;;;4.20;;
74059;SDS011;62414;53.436;8.828;2023-07-13T07:41:31;13.80;;;4.40;;
74059;SDS011;62414;53.436;8.828;2023-07-13T07:43:56;15.67;;;4.60;;
74059;SDS011;62414;53.436;8.828;2023-07-13T07:46:22;12.50;;;3.90;;
74059;SDS011;62414;53.436;8.828;2023-07-13T07:48:47;12.77;;;4.00;;
74059;SDS011;62414;53.436;8.828;2023-07-13T07:51:13;16.27;;;4.43;;
74059;SDS011;62414;53.436;8.828;2023-07-13T07:53:39;11.70;;;4.50;;
74059;SDS011;62414;53.436;8.828;2023-07-13T07:56:05;13.43;;;4.50;;
74059;SDS011;62414;53.436;8.828;2023-07-13T07:58:30;10.97;;;4.20;;
74059;SDS011;62414;53.436;8.828;2023-07-13T08:01:01;11.17;;;4.17;;
74059;SDS011;62414;53.436;8.828;2023-07-13T08:03:27;11.82;;;4.43;;
74059;SDS011;62414;53.436;8.828;2023-07-13T08:05:53;12.83;;;4.30;;
74059;SDS011;62414;53.436;8.828;2023-07-13T08:08:18;10.67;;;4.50;;
74059;SDS011;62414;53.436;8.828;2023-07-13T08:10:45;11.77;;;4.23;;
74059;SDS011;62414;53.436;8.828;2023-07-13T08:13:10;11.15;;;4.10;;
74059;SDS011;62414;53.436;8.828;2023-07-13T08:15:36;14.03;;;4.20;;
74059;SDS011;62414;53.436;8.828;2023-07-13T08:18:01;10.20;;;4.40;;
74059;SDS011;62414;53.436;8.828;2023-07-13T08:20:27;9.73;;;4.20;;
74059;SDS011;62414;53.436;8.828;2023-07-13T08:22:53;13.57;;;4.27;;
74059;SDS011;62414;53.436;8.828;2023-07-13T08:25:18;14.73;;;4.30;;
74059;SDS011;62414;53.436;8.828;2023-07-13T08:27:45;13.13;;;4.00;;
74059;SDS011;62414;53.436;8.828;2023-07-13T08:30:10;12.30;;;4.10;;
74059;SDS011;62414;53.436;8.828;2023-07-13T08:32:36;12.20;;;4.47;;
74059;SDS011;62414;53.436;8.828;2023-07-13T08:35:01;14.95;;;3.80;;
74059;SDS011;62414;53.436;8.828;2023-07-13T08:37:27;10.55;;;3.97;;
74059;SDS011;62414;53.436;8.828;2023-07-13T08:39:52;10.63;;;3.53;;
74059;SDS011;62414;53.436;8.828;2023-07-13T08:42:22;10.97;;;3.50;;
74059;SDS011;62414;53.436;8.828;2023-07-13T08:44:59;9.18;;;3.63;;
74059;SDS011;62414;53.436;8.828;2023-07-13T08:47:32;8.63;;;3.65;;
74059;SDS011;62414;53.436;8.828;2023-07-13T08:50:00;8.25;;;3.38;;
74059;SDS011;62414;53.436;8.828;2023-07-13T08:52:28;9.80;;;3.30;;
74059;SDS011;62414;53.436;8.828;2023-07-13T08:54:56;9.32;;;2.92;;
74059;SDS011;62414;53.436;8.828;2023-07-13T08:57:24;9.77;;;3.10;;
74059;SDS011;62414;53.436;8.828;2023-07-13T08:59:52;12.43;;;3.47;;
74059;SDS011;62414;53.436;8.828;2023-07-13T09:02:23;11.07;;;3.22;;
74059;SDS011;62414;53.436;8.828;2023-07-13T09:04:53;8.87;;;3.27;;
74059;SDS011;62414;53.436;8.828;2023-07-13T09:07:23;9.38;;;2.88;;
74059;SDS011;62414;53.436;8.828;2023-07-13T09:09:55;8.75;;;3.20;;
74059;SDS011;62414;53.436;8.828;2023-07-13T09:12:27;7.60;;;2.90;;
74059;SDS011;62414;53.436;8.828;2023-07-13T09:14:57;9.32;;;2.85;;
74059;SDS011;62414;53.436;8.828;2023-07-13T09:17:25;8.17;;;2.90;;
74059;SDS011;62414;53.436;8.828;2023-07-13T09:19:53;8.77;;;2.90;;
74059;SDS011;62414;53.436;8.828;2023-07-13T09:22:22;11.05;;;2.53;;
74059;SDS011;62414;53.436;8.828;2023-07-13T09:24:51;6.55;;;2.30;;
74059;SDS011;62414;53.436;8.828;2023-07-13T09:27:19;7.82;;;2.80;;
74059;SDS011;62414;53.436;8.828;2023-07-13T09:29:47;9.27;;;2.63;;
74059;SDS011;62414;53.436;8.828;2023-07-13T09:32:14;7.53;;;2.53;;
74059;SDS011;62414;53.436;8.828;2023-07-13T09:34:45;7.43;;;2.67;;
74059;SDS011;62414;53.436;8.828;2023-07-13T09:37:15;7.88;;;2.70;;
74059;SDS011;62414;53.436;8.828;2023-07-13T09:39:40;8.43;;;2.37;;
74059;SDS011;62414;53.436;8.828;2023-07-13T09:42:11;7.57;;;2.47;;
74059;SDS011;62414;53.436;8.828;2023-07-13T09:44:51;7.13;;;2.15;;
74059;SDS011;62414;53.436;8.828;2023-07-13T09:47:19;6.40;;;2.50;;
74059;SDS011;62414;53.436;8.828;2023-07-13T09:49:47;6.47;;;2.33;;
74059;SDS011;62414;53.436;8.828;2023-07-13T09:52:14;7.63;;;2.53;;
74059;SDS011;62414;53.436;8.828;2023-07-13T09:54:44;7.18;;;2.42;;
74059;SDS011;62414;53.436;8.828;2023-07-13T09:57:11;8.50;;;2.53;;
74059;SDS011;62414;53.436;8.828;2023-07-13T09:59:39;6.93;;;2.13;;
74059;SDS011;62414;53.436;8.828;2023-07-13T10:02:19;5.95;;;2.17;;
74059;SDS011;62414;53.436;8.828;2023-07-13T10:04:53;7.38;;;2.20;;
74059;SDS011;62414;53.436;8.828;2023-07-13T10:07:22;5.15;;;1.88;;
74059;SDS011;62414;53.436;8.828;2023-07-13T10:09:49;5.68;;;2.08;;
74059;SDS011;62414;53.436;8.828;2023-07-13T10:12:17;4.80;;;1.50;;
74059;SDS011;62414;53.436;8.828;2023-07-13T10:14:43;6.38;;;1.92;;
74059;SDS011;62414;53.436;8.828;2023-07-13T10:17:08;4.40;;;1.60;;
74059;SDS011;62414;53.436;8.828;2023-07-13T10:19:35;5.43;;;1.85;;
74059;SDS011;62414;53.436;8.828;2023-07-13T10:22:09;6.55;;;1.95;;
74059;SDS011;62414;53.436;8.828;2023-07-13T10:24:38;6.82;;;1.75;;
74059;SDS011;62414;53.436;8.828;2023-07-13T10:27:05;6.20;;;1.83;;
74059;SDS011;62414;53.436;8.828;2023-07-13T10:29:36;6.38;;;1.80;;
74059;SDS011;62414;53.436;8.828;2023-07-13T10:32:03;4.43;;;1.85;;
74059;SDS011;62414;53.436;8.828;2023-07-13T10:34:33;3.70;;;1.70;;
74059;SDS011;62414;53.436;8.828;2023-07-13T10:36:59;5.90;;;1.67;;
74059;SDS011;62414;53.436;8.828;2023-07-13T10:39:27;6.75;;;1.85;;
74059;SDS011;62414;53.436;8.828;2023-07-13T10:41:55;6.50;;;1.80;;
74059;SDS011;62414;53.436;8.828;2023-07-13T10:44:24;4.93;;;1.58;;
74059;SDS011;62414;53.436;8.828;2023-07-13T10:46:51;4.70;;;1.60;;
74059;SDS011;62414;53.436;8.828;2023-07-13T10:49:17;5.47;;;1.70;;
74059;SDS011;62414;53.436;8.828;2023-07-13T10:51:43;5.10;;;1.70;;
74059;SDS011;62414;53.436;8.828;2023-07-13T10:54:11;4.10;;;1.63;;
74059;SDS011;62414;53.436;8.828;2023-07-13T10:56:41;3.70;;;1.55;;
74059;SDS011;62414;53.436;8.828;2023-07-13T10:59:09;7.10;;;1.80;;
74059;SDS011;62414;53.436;8.828;2023-07-13T11:01:39;6.15;;;1.90;;
74059;SDS011;62414;53.436;8.828;2023-07-13T11:04:08;4.60;;;1.60;;
74059;SDS011;62414;53.436;8.828;2023-07-13T11:06:37;6.53;;;1.70;;
74059;SDS011;62414;53.436;8.828;2023-07-13T11:09:29;5.57;;;1.90;;
74059;SDS011;62414;53.436;8.828;2023-07-13T11:12:00;4.87;;;1.50;;
74059;SDS011;62414;53.436;8.828;2023-07-13T11:14:28;3.85;;;1.00;;
74059;SDS011;62414;53.436;8.828;2023-07-13T11:16:55;4.60;;;0.90;;
74059;SDS011;62414;53.436;8.828;2023-07-13T11:19:29;4.20;;;1.23;;
74059;SDS011;62414;53.436;8.828;2023-07-13T11:22:10;4.47;;;1.05;;
74059;SDS011;62414;53.436;8.828;2023-07-13T11:24:53;4.65;;;1.30;;
74059;SDS011;62414;53.436;8.828;2023-07-13T11:27:32;5.50;;;1.30;;
74059;SDS011;62414;53.436;8.828;2023-07-13T11:30:18;4.38;;;1.30;;
74059;SDS011;62414;53.436;8.828;2023-07-13T11:32:49;4.00;;;1.27;;
74059;SDS011;62414;53.436;8.828;2023-07-13T11:35:16;3.72;;;1.27;;
74059;SDS011;62414;53.436;8.828;2023-07-13T11:37:46;4.47;;;1.20;;
74059;SDS011;62414;53.436;8.828;2023-07-13T11:40:12;3.97;;;1.10;;
74059;SDS011;62414;53.436;8.828;2023-07-13T11:42:40;3.80;;;1.30;;
74059;SDS011;62414;53.436;8.828;2023-07-13T11:45:14;3.58;;;1.10;;
74059;SDS011;62414;53.436;8.828;2023-07-13T11:47:44;2.85;;;1.20;;
74059;SDS011;62414;53.436;8.828;2023-07-13T11:50:16;5.13;;;1.20;;
74059;SDS011;62414;53.436;8.828;2023-07-13T11:52:43;4.50;;;1.30;;
74059;SDS011;62414;53.436;8.828;2023-07-13T11:55:13;4.72;;;1.30;;
74059;SDS011;62414;53.436;8.828;2023-07-13T11:57:42;4.95;;;1.30;;
74059;SDS011;62414;53.436;8.828;2023-07-13T12:00:11;4.55;;;1.35;;
74059;SDS011;62414;53.436;8.828;2023-07-13T12:02:39;3.90;;;1.20;;
74059;SDS011;62414;53.436;8.828;2023-07-13T12:05:06;5.45;;;1.30;;
74059;SDS011;62414;53.436;8.828;2023-07-13T12:07:35;5.35;;;1.63;;
74059;SDS011;62414;53.436;8.828;2023-07-13T12:10:01;3.30;;;1.10;;
74059;SDS011;62414;53.436;8.828;2023-07-13T12:12:28;4.87;;;1.30;;
74059;SDS011;62414;53.436;8.828;2023-07-13T12:14:55;3.33;;;1.10;;
74059;SDS011;62414;53.436;8.828;2023-07-13T12:17:21;2.85;;;1.10;;
74059;SDS011;62414;53.436;8.828;2023-07-13T12:19:48;3.42;;;1.10;;
74059;SDS011;62414;53.436;8.828;2023-07-13T12:22:16;3.85;;;1.20;;
74059;SDS011;62414;53.436;8.828;2023-07-13T12:24:43;4.40;;;1.20;;
74059;SDS011;62414;53.436;8.828;2023-07-13T12:27:14;4.03;;;1.05;;
74059;SDS011;62414;53.436;8.828;2023-07-13T12:29:49;3.33;;;1.20;;
74059;SDS011;62414;53.436;8.828;2023-07-13T12:32:17;3.95;;;1.20;;
74059;SDS011;62414;53.436;8.828;2023-07-13T12:34:50;3.65;;;1.40;;
74059;SDS011;62414;53.436;8.828;2023-07-13T12:37:17;5.63;;;1.40;;
74059;SDS011;62414;53.436;8.828;2023-07-13T12:39:43;2.95;;;1.13;;
74059;SDS011;62414;53.436;8.828;2023-07-13T12:42:16;3.13;;;1.03;;
74059;SDS011;62414;53.436;8.828;2023-07-13T12:44:44;3.42;;;1.17;;
74059;SDS011;62414;53.436;8.828;2023-07-13T12:47:11;4.38;;;1.50;;
74059;SDS011;62414;53.436;8.828;2023-07-13T12:49:42;3.47;;;1.15;;
74059;SDS011;62414;53.436;8.828;2023-07-13T12:52:10;2.88;;;1.10;;
74059;SDS011;62414;53.436;8.828;2023-07-13T12:54:40;3.40;;;1.20;;
74059;SDS011;62414;53.436;8.828;2023-07-13T12:57:05;4.85;;;1.30;;
74059;SDS011;62414;53.436;8.828;2023-07-13T12:59:34;4.10;;;1.40;;
74059;SDS011;62414;53.436;8.828;2023-07-13T13:01:59;5.17;;;1.70;;
74059;SDS011;62414;53.436;8.828;2023-07-13T13:04:25;4.10;;;1.80;;
74059;SDS011;62414;53.436;8.828;2023-07-13T13:07:02;5.32;;;2.00;;
74059;SDS011;62414;53.436;8.828;2023-07-13T13:09:28;4.43;;;1.70;;
74059;SDS011;62414;53.436;8.828;2023-07-13T13:11:53;4.07;;;1.83;;
74059;SDS011;62414;53.436;8.828;2023-07-13T13:14:19;4.37;;;1.53;;
74059;SDS011;62414;53.436;8.828;2023-07-13T13:16:46;4.63;;;1.40;;
74059;SDS011;62414;53.436;8.828;2023-07-13T13:19:13;4.35;;;1.60;;
74059;SDS011;62414;53.436;8.828;2023-07-13T13:21:40;4.63;;;1.55;;
74059;SDS011;62414;53.436;8.828;2023-07-13T13:24:11;3.38;;;1.40;;
74059;SDS011;62414;53.436;8.828;2023-07-13T13:26:37;3.83;;;1.30;;
74059;SDS011;62414;53.436;8.828;2023-07-13T13:29:04;4.60;;;1.20;;
74059;SDS011;62414;53.436;8.828;2023-07-13T13:31:36;3.72;;;1.17;;
74059;SDS011;62414;53.436;8.828;2023-07-13T13:34:01;3.60;;;1.20;;
74059;SDS011;62414;53.436;8.828;2023-07-13T13:36:26;3.63;;;1.20;;
74059;SDS011;62414;53.436;8.828;2023-07-13T13:38:52;3.47;;;1.02;;
74059;SDS011;62414;53.436;8.828;2023-07-13T13:41:19;3.00;;;0.90;;
74059;SDS011;62414;53.436;8.828;2023-07-13T13:43:44;3.50;;;0.95;;
74059;SDS011;62414;53.436;8.828;2023-07-13T13:46:12;2.90;;;0.90;;
74059;SDS011;62414;53.436;8.828;2023-07-13T13:48:39;3.67;;;0.95;;
74059;SDS011;62414;53.436;8.828;2023-07-13T13:51:06;2.73;;;0.60;;
74059;SDS011;62414;53.436;8.828;2023-07-13T13:53:39;3.35;;;0.98;;
74059;SDS011;62414;53.436;8.828;2023-07-13T13:56:04;2.80;;;0.80;;
74059;SDS011;62414;53.436;8.828;2023-07-13T13:58:31;2.83;;;0.75;;
74059;SDS011;62414;53.436;8.828;2023-07-13T14:00:57;3.15;;;0.80;;
74059;SDS011;62414;53.436;8.828;2023-07-13T14:03:22;2.00;;;0.60;;
74059;SDS011;62414;53.436;8.828;2023-07-13T14:05:47;3.00;;;0.70;;
74059;SDS011;62414;53.436;8.828;2023-07-13T14:08:14;3.70;;;0.70;;
74059;SDS011;62414;53.436;8.828;2023-07-13T14:10:40;3.65;;;0.60;;
74059;SDS011;62414;53.436;8.828;2023-07-13T14:13:07;3.03;;;0.77;;
74059;SDS011;62414;53.436;8.828;2023-07-13T14:15:41;3.13;;;0.70;;
74059;SDS011;62414;53.436;8.828;2023-07-13T14:18:07;2.10;;;0.60;;
74059;SDS011;62414;53.436;8.828;2023-07-13T14:20:33;3.20;;;1.00;;
74059;SDS011;62414;53.436;8.828;2023-07-13T14:22:59;2.67;;;0.80;;
74059;SDS011;62414;53.436;8.828;2023-07-13T14:25:24;3.42;;;1.00;;
74059;SDS011;62414;53.436;8.828;2023-07-13T14:27:51;3.90;;;1.00;;
74059;SDS011;62414;53.436;8.828;2023-07-13T14:30:19;3.35;;;1.00;;
74059;SDS011;62414;53.436;8.828;2023-07-13T14:32:47;2.97;;;1.00;;
74059;SDS011;62414;53.436;8.828;2023-07-13T14:35:13;3.73;;;1.10;;
74059;SDS011;62414;53.436;8.828;2023-07-13T14:37:39;4.00;;;1.30;;
74059;SDS011;62414;53.436;8.828;2023-07-13T14:40:11;4.90;;;1.33;;